Latest Coastal Weather Observations for Port Lincoln Airport

IDS60701

Issued at 8:31 pm CST Sunday 30 April 2017 (issued every 10 minutes, with the page automatically refreshed every 10 minutes)

About coastal observations | Map of coastal stations | Coastal observations for SA | Marine services | Other Formats
Station Details ID: 018192 Name: PORT LINCOLN AWS Lat: -34.60 Lon: 135.88 Height: 8.5 m
Data from the previous 72 hours. | See also: Recent months at Port Lincoln Airport
Date/Time
CST
Temp
°C
Wind Pressure Rain since
9am
mm
Weather Cloud Vis
km
Sea
Height
m
Swell
Dir  Spd
kts
Gust
kts
hPa Trend Height
m
Period
s
Dir
30/08:30pm 13.0 NNW 6 8 1018.4 - 0.0 - - 10 - - - -
30/08:00pm 13.8 NW 4 6 1018.5 - 0.0 - Partly cloudy 10 - - - -
30/07:30pm 15.4 NW 6 7 1018.6 - 0.0 - Cloudy 10 - - - -
30/07:00pm 15.0 WNW 8 9 1018.4 - 0.0 - Cloudy 10 - - - -
30/06:30pm 13.5 NW 7 8 1018.3 - 0.0 - Partly cloudy 10 - - - -
30/06:00pm 15.6 WNW 6 6 1018.1 - 0.0 - - 10 - - - -
30/05:30pm 17.7 WNW 8 11 1017.8 - 0.0 - - 10 - - - -
30/05:00pm 19.3 NW 10 13 1017.8 - 0.0 - Partly cloudy 10 - - - -
30/04:30pm 20.0 WNW 10 15 1017.8 - 0.0 - Cloudy 10 - - - -
30/04:00pm 19.5 WNW 11 16 1017.9 - 0.0 - Cloudy 10 - - - -
30/03:30pm 19.6 NW 8 12 1018.0 - 0.0 - Cloudy 10 - - - -
30/03:00pm 19.9 WNW 11 14 1018.3 - 0.0 - Cloudy 10 - - - -
30/02:30pm 20.0 NW 9 14 1018.3 - 0.0 - Cloudy 10 - - - -
30/02:00pm 20.3 NNW 9 12 1018.5 - 0.0 - Cloudy 10 - - - -
30/01:30pm 20.1 NNW 7 11 1019.0 - 0.0 - Partly cloudy 10 - - - -
30/01:00pm 19.4 N 8 11 1019.3 - 0.0 - Partly cloudy 10 - - - -
30/12:30pm 19.6 NNW 10 14 1019.9 - 0.0 - Cloudy 10 - - - -
30/12:00pm 20.0 NNW 10 14 1020.3 - 0.0 - Mostly cloudy 10 - - - -
30/11:30am 20.7 N 9 13 1020.7 - 0.0 - Partly cloudy 10 - - - -
30/11:00am 19.0 N 9 11 1020.9 - 0.0 - Partly cloudy 10 - - - -
30/10:30am 18.1 NNW 9 11 1021.3 - 0.0 - Partly cloudy 10 - - - -
30/10:00am 16.6 NNW 8 11 1021.7 - 0.0 - Cloudy 10 - - - -
30/09:30am 16.1 NNW 7 10 1021.9 - 0.0 - Cloudy 10 - - - -
30/09:00am 15.4 NW 6 8 1022.2 - 0.8 - Cloudy 10 - - - -
30/08:30am 15.0 WNW 5 7 1022.3 - 0.8 - Cloudy 10 - - - -
30/08:00am 14.6 NW 5 7 1022.2 - 0.8 - Cloudy 10 - - - -
30/07:30am 14.3 NNW 6 7 1022.3 - 0.8 - Cloudy 10 - - - -
30/07:00am 14.1 NNW 6 7 1022.2 - 0.8 - Cloudy 10 - - - -
30/06:30am 14.1 NNW 5 7 1022.4 - 0.8 - Cloudy 10 - - - -
30/06:00am 13.9 N 6 7 1022.4 - 0.8 - Cloudy 10 - - - -
30/05:30am 13.9 NW 2 3 1022.5 - 0.8 - Cloudy 10 - - - -
30/05:00am 14.1 NW 5 8 1022.5 - 0.8 - Cloudy 10 - - - -
30/04:30am 14.3 WNW 5 7 1022.3 - 0.8 - Cloudy 10 - - - -
30/04:00am 14.2 CALM 0 0 1022.3 - 0.8 - Cloudy 10 - - - -
30/03:30am 14.4 CALM 0 0 1022.5 - 0.8 - Cloudy 10 - - - -
30/03:00am 14.4 CALM 0 0 1022.8 - 0.8 - Cloudy 10 - - - -
30/02:30am 14.3 WNW 2 3 1023.0 - 0.8 - Cloudy 10 - - - -
30/02:00am 14.2 WNW 2 4 1023.3 - 0.8 - Cloudy 10 - - - -
30/01:30am 14.2 WNW 4 5 1023.5 - 0.8 - Cloudy 10 - - - -
30/01:00am 13.9 WNW 5 5 1023.5 - 0.8 - Cloudy 10 - - - -
30/12:30am 13.5 WNW 3 4 1023.7 - 0.8 - Cloudy 10 - - - -
30/12:00am 12.9 WNW 3 4 1024.0 - 0.8 - Cloudy 10 - - - -
 
Date/Time
CST
Temp
°C
Wind Pressure Rain since
9am
mm
Weather Cloud Vis
km
Sea
Height
m
Swell
Dir  Spd
kts
Gust
kts
hPa Trend Height
m
Period
s
Dir
29/11:30pm 13.6 CALM 0 0 1024.0 - 0.8 - Partly cloudy 10 - - - -
29/11:00pm 13.8 CALM 0 0 1024.3 - 0.8 - Cloudy 10 - - - -
29/10:30pm 13.6 CALM 0 4 1024.6 - 0.8 - Cloudy 10 - - - -
29/10:00pm 13.3 NW 3 4 1024.6 - 0.8 - Cloudy 10 - - - -
29/09:30pm 13.5 WNW 4 5 1024.9 - 0.8 - Partly cloudy 10 - - - -
29/09:00pm 13.6 WNW 4 5 1024.9 - 0.8 - Cloudy 10 - - - -
29/08:30pm 14.6 CALM 0 0 1025.1 - 0.8 - Partly cloudy 10 - - - -
29/08:00pm 15.1 CALM 0 0 1025.2 - 0.8 - Cloudy 10 - - - -
29/07:30pm 15.4 N 3 3 1025.2 - 0.8 - Partly cloudy 10 - - - -
29/07:00pm 15.5 N 3 4 1025.1 - 0.8 - Partly cloudy 10 - - - -
29/06:30pm 15.7 N 4 4 1025.0 - 0.8 - Partly cloudy 10 - - - -
29/06:26pm 15.7 N 3 4 1025.0 - 0.8 - Partly cloudy 10 - - - -
29/06:00pm 15.9 WSW 4 7 1024.9 - 0.6 Recent precip. Cloudy 7 - - - -
29/05:49pm 16.2 SSW 3 6 1024.8 - 0.6 - Cloudy 9 - - - -
29/05:39pm 16.4 WSW 4 7 1024.7 - 0.6 - Cloudy 5 - - - -
29/05:30pm 16.7 SW 5 9 1024.6 - 0.2 - Partly cloudy 7 - - - -
29/05:20pm 17.0 SSW 6 8 1024.5 - 0.0 - Partly cloudy 10 - - - -
29/05:00pm 17.4 SSE 6 7 1024.4 - 0.0 - Cloudy 10 - - - -
29/04:30pm 17.4 SSE 7 9 1024.4 - 0.0 - Partly cloudy 10 - - - -
29/04:00pm 17.7 SSE 7 8 1024.4 - 0.0 - Partly cloudy 10 - - - -
29/03:30pm 18.3 SSE 6 8 1024.5 - 0.0 - Partly cloudy 10 - - - -
29/03:00pm 18.5 SSE 4 6 1024.6 - 0.0 - Cloudy 10 - - - -
29/02:30pm 18.1 S 9 11 1024.6 - 0.0 - Partly cloudy 10 - - - -
29/02:00pm 18.6 S 7 10 1024.7 - 0.0 - Partly cloudy 10 - - - -
29/01:30pm 18.9 WSW 3 6 1025.0 - 0.0 - Partly cloudy 10 - - - -
29/01:00pm 18.5 W 2 3 1025.5 - 0.0 - Partly cloudy 10 - - - -
29/12:30pm 18.0 ENE 3 5 1026.0 - 0.0 - Partly cloudy 10 - - - -
29/12:00pm 17.7 WSW 3 6 1026.4 - 0.0 - Cloudy 10 - - - -
29/11:30am 17.5 W 3 7 1026.7 - 0.0 - Cloudy 10 - - - -
29/11:00am 18.3 NW 7 8 1026.8 - 0.0 - Cloudy 10 - - - -
29/10:30am 18.5 NW 6 9 1027.0 - 0.0 - Partly cloudy 10 - - - -
29/10:00am 17.4 NNW 7 10 1027.3 - 0.0 - Partly cloudy 10 - - - -
29/09:30am 16.9 NW 7 9 1027.5 - 0.0 - Partly cloudy 10 - - - -
29/09:00am 16.4 NNW 7 8 1027.3 - 0.0 - Cloudy 10 - - - -
29/08:30am 15.5 NW 6 8 1027.0 - 0.0 - Partly cloudy 10 - - - -
29/08:00am 15.1 NW 6 8 1026.7 - 0.0 - Partly cloudy 10 - - - -
29/07:30am 14.4 NNW 7 11 1026.5 - 0.0 - Cloudy 10 - - - -
29/07:00am 13.9 NW 9 11 1026.4 - 0.0 - Cloudy 10 - - - -
29/06:30am 13.7 NNW 8 9 1026.2 - 0.0 - Partly cloudy 10 - - - -
29/06:00am 13.4 NNW 8 10 1026.0 - 0.0 - Cloudy 10 - - - -
29/05:30am 13.8 NW 5 7 1025.9 - 0.0 - Cloudy 10 - - - -
29/05:00am 13.6 NNW 6 7 1025.7 - 0.0 - Cloudy 10 - - - -
29/04:30am 13.0 NNW 6 6 1025.7 - 0.0 - Cloudy 10 - - - -
29/04:00am 12.8 N 4 6 1025.8 - 0.0 - Cloudy 10 - - - -
29/03:30am 12.5 N 6 7 1025.6 - 0.0 - Cloudy 10 - - - -
29/03:00am 12.4 NNW 7 9 1025.9 - 0.0 - Cloudy 10 - - - -
29/02:30am 12.5 NW 6 8 1026.2 - 0.0 - Cloudy 10 - - - -
29/02:00am 12.0 NNW 6 8 1026.3 - 0.0 - Cloudy 10 - - - -
29/01:30am 11.9 NNW 7 8 1026.5 - 0.0 - Cloudy 10 - - - -
29/01:00am 11.0 NNW 6 8 1026.6 - 0.0 - Cloudy 10 - - - -
29/12:30am 9.8 NNW 6 8 1026.8 - 0.0 - Partly cloudy 10 - - - -
29/12:00am 10.3 NNW 6 8 1027.0 - 0.0 - - 10 - - - -
 
Date/Time
CST
Temp
°C
Wind Pressure Rain since
9am
mm
Weather Cloud Vis
km
Sea
Height
m
Swell
Dir  Spd
kts
Gust
kts
hPa Trend Height
m
Period
s
Dir
28/11:30pm 11.0 NW 7 9 1027.1 - 0.0 - - 10 - - - -
28/11:00pm 10.9 WNW 7 8 1027.4 - 0.0 - - 10 - - - -
28/10:30pm 11.1 WNW 7 9 1027.6 - 0.0 - - 10 - - - -
28/10:00pm 10.9 NW 7 8 1027.7 - 0.0 - - 10 - - - -
28/09:30pm 11.9 NW 6 8 1027.7 - 0.0 - - 10 - - - -
28/09:00pm 12.4 WNW 7 8 1027.9 - 0.0 - Cloudy 10 - - - -
28/08:30pm 13.3 SW 6 7 1027.8 - 0.0 - Cloudy 10 - - - -
28/08:00pm 12.8 WNW 5 7 1027.8 - 0.0 - Partly cloudy 10 - - - -
28/07:30pm 12.7 W 4 6 1027.7 - 0.0 - Partly cloudy 10 - - - -
28/07:00pm 13.8 CALM 0 2 1027.5 - 0.0 - Cloudy 10 - - - -
28/06:30pm 14.0 E 4 6 1027.4 - 0.0 - Partly cloudy 10 - - - -
28/06:00pm 14.8 S 3 6 1027.1 - 0.0 - Cloudy 10 - - - -
28/05:30pm 15.9 SW 7 11 1026.8 - 0.0 - Partly cloudy 10 - - - -
28/05:00pm 16.5 SW 10 13 1026.9 - 0.0 - Partly cloudy 10 - - - -
28/04:30pm 17.8 WSW 11 15 1026.9 - 0.0 - Partly cloudy 10 - - - -
28/04:00pm 17.8 SE 7 8 1026.9 - 0.0 - Partly cloudy 10 - - - -
28/03:30pm 17.6 SSE 7 11 1026.8 - 0.0 - Partly cloudy 10 - - - -
28/03:00pm 18.4 SSW 8 12 1027.0 - 0.0 - Cloudy 10 - - - -
28/02:30pm 17.4 SW 9 13 1027.3 - 0.0 - Partly cloudy 10 - - - -
28/02:00pm 18.5 WSW 9 13 1027.3 - 0.0 - Partly cloudy 10 - - - -
28/01:30pm 18.5 W 11 15 1027.6 - 0.0 - Cloudy 10 - - - -
28/01:00pm 18.5 SW 9 14 1027.9 - 0.0 - Partly cloudy 10 - - - -
28/12:30pm 18.7 WSW 6 9 1028.2 - 0.0 - Partly cloudy 10 - - - -
28/12:00pm 18.0 WSW 7 11 1028.8 - 0.0 - Mostly cloudy 10 - - - -
28/11:30am 17.8 SW 8 12 1029.1 - 0.0 - Cloudy 10 - - - -
28/11:00am 17.5 WSW 9 13 1029.2 - 0.0 - Partly cloudy 10 - - - -
28/10:30am 17.8 W 9 13 1029.3 - 0.0 - Partly cloudy 10 - - - -
28/10:00am 18.3 WNW 8 13 1029.4 - 0.0 - Partly cloudy 10 - - - -
28/09:30am 16.9 NW 9 13 1029.5 - 0.0 - Partly cloudy 10 - - - -
28/09:00am 15.7 NW 8 11 1029.4 - 0.0 - Mostly clear 10 - - - -
28/08:30am 12.9 NW 4 7 1029.3 - 0.0 - Partly cloudy 10 - - - -
28/08:16am 12.4 NW 4 5 1029.2 - 0.0 - Partly cloudy 10 - - - -
28/08:00am 12.4 NW 3 4 1029.0 - 0.0 - Partly cloudy 10 - - - -
28/07:59am 12.4 NW 3 4 1029.0 - 0.0 - Partly cloudy 10 - - - -
28/07:44am 12.4 WNW 4 5 1028.8 - 0.0 - Partly cloudy 10 - - - -
28/07:30am 11.7 W 4 6 1028.7 - 0.0 - Partly cloudy 10 - - - -
28/07:00am 10.8 NW 8 9 1028.4 - 0.0 - - 10 - - - -
28/06:30am 12.0 WNW 7 9 1028.4 - 0.0 - Partly cloudy 10 - - - -
28/06:00am 12.9 WNW 9 12 1028.4 - 0.0 - Cloudy 10 - - - -
28/05:30am 11.7 NW 8 11 1028.3 - 0.0 - Partly cloudy 10 - - - -
28/05:00am 11.2 WNW 6 8 1028.1 - 0.0 - - 10 - - - -
28/04:30am 12.4 WNW 7 9 1028.0 - 0.0 - Partly cloudy 10 - - - -
28/04:00am 12.7 NNW 4 7 1027.9 - 0.0 - Partly cloudy 10 - - - -
28/03:30am 12.7 NW 5 8 1028.0 - 0.0 - Cloudy 10 - - - -
28/03:00am 12.6 NNE 4 5 1028.3 - 0.0 - Cloudy 10 - - - -
28/02:30am 12.4 N 7 9 1028.4 - 0.0 - Partly cloudy 10 - - - -
28/02:00am 12.2 N 6 8 1028.5 - 0.0 - Cloudy 10 - - - -
28/01:30am 12.2 NNW 5 7 1028.6 - 0.0 - Cloudy 10 - - - -
28/01:00am 12.5 WNW 9 11 1028.3 - 0.0 - Partly cloudy 10 - - - -
28/12:30am 11.4 NW 7 10 1028.3 - 0.0 - Partly cloudy 10 - - - -
28/12:00am 11.1 NW 9 9 1028.4 - 0.0 - Mostly clear 10 - - - -
 
Date/Time
CST
Temp
°C
Wind Pressure Rain since
9am
mm
Weather Cloud Vis
km
Sea
Height
m
Swell
Dir  Spd
kts
Gust
kts
hPa Trend Height
m
Period
s
Dir
27/11:30pm 11.8 WNW 10 11 1028.8 - 0.0 - Partly cloudy 10 - - - -
27/11:00pm 11.7 NNW 3 6 1029.1 - 0.0 - Partly cloudy 10 - - - -
27/10:30pm 12.1 NW 6 7 1029.2 - 0.0 - Partly cloudy 10 - - - -
27/10:00pm 12.8 WNW 5 8 1029.2 - 0.0 - Partly cloudy 10 - - - -
27/09:30pm 14.0 SW 10 13 1029.2 - 0.0 - Partly cloudy 10 - - - -
27/09:00pm 14.6 SW 6 9 1029.0 - 0.0 - Cloudy 10 - - - -

Other Formats:

Comma delimited format used in spreadsheet applications
http://www.bom.gov.au/fwo/IDS60701/IDS60701.95661.axf

JavaScript Object Notation format (JSON) in row-major order
http://www.bom.gov.au/fwo/IDS60701/IDS60701.95661.json